Time;durP1;ratioP1;P1;durP2;ratioP2;P2;SDS_P1;SDS_P2;PMS_P1;PMS_P2;Temp;Humidity;BMP_temperature;BMP_pressure;BME280_temperature;BME280_humidity;BME280_pressure;Samples;Min_cycle;Max_cycle;Signal;HPM_P1;HPM_P2
2022/03/25 00:00:30;;;;;;;;;;;;;;;;;;5052922;28;20294;-48
2022/03/25 00:02:56;;;;;;;;;;;;;;;;;;5052596;28;19916;-47
2022/03/25 00:05:22;;;;;;;;;;;;;;;;;;5052776;28;19993;-46
2022/03/25 00:07:48;;;;;;;;;;;;;;;;;;5052855;28;19904;-47
2022/03/25 00:10:13;;;;;;;;;;;;;;;;;;5052815;28;20493;-47
2022/03/25 00:12:40;;;;;;;;;;;;;;;;;;5052694;28;19935;-46
2022/03/25 00:15:06;;;;;;;;;;;;;;;;;;5052736;28;20000;-47
2022/03/25 00:17:32;;;;;;;;;;;;;;;;;;5052676;28;19943;-48
2022/03/25 00:19:58;;;;;;;;;;;;;;;;;;5052505;28;19940;-47
2022/03/25 00:22:24;;;;;;;;;;;;;;;;;;5052636;28;19905;-46
2022/03/25 00:24:50;;;;;;;;;;;;;;;;;;5052788;28;19956;-47
2022/03/25 00:27:17;;;;;;;;;;;;;;;;;;5052609;28;19912;-47
2022/03/25 00:29:43;;;;;;;;;;;;;;;;;;5052367;28;19904;-48
2022/03/25 00:32:09;;;;;;;;;;;;;;;;;;5052528;28;19911;-47
2022/03/25 00:34:35;;;;;;;;;;;;;;;;;;5052522;28;19905;-47
2022/03/25 00:37:01;;;;;;;;;;;;;;;;;;5052805;28;19905;-47
2022/03/25 00:39:27;;;;;;;;;;;;;;;;;;5052482;28;20039;-47
2022/03/25 00:41:53;;;;;;;;;;;;;;;;;;5052420;28;19958;-48
2022/03/25 00:44:19;;;;;;;;;;;;;;;;;;5052429;28;19920;-47
2022/03/25 00:46:45;;;;;;;;;;;;;;;;;;5052434;28;19911;-47
2022/03/25 00:49:11;;;;;;;;;;;;;;;;;;5052320;28;19905;-48
2022/03/25 00:51:37;;;;;;;;;;;;;;;;;;5052353;28;19905;-47
2022/03/25 00:54:03;;;;;;;;;;;;;;;;;;5052263;28;19911;-47
2022/03/25 00:56:29;;;;;;;;;;;;;;;;;;5052321;28;20341;-47
2022/03/25 00:58:55;;;;;;;;;;;;;;;;;;5052471;28;20279;-47
2022/03/25 01:01:20;;;;;;;;;;;;;;;;;;5052079;28;19911;-47
2022/03/25 01:03:46;;;;;;;;;;;;;;;;;;5052172;28;19908;-48
2022/03/25 01:06:12;;;;;;;;;;;;;;;;;;5052405;28;19905;-48
2022/03/25 01:08:38;;;;;;;;;;;;;;;;;;5052140;28;19905;-48
2022/03/25 01:11:04;;;;;;;;;;;;;;;;;;5052129;28;19905;-47
2022/03/25 01:13:33;;;;;;;;;;;;;;;;;;5052163;28;19916;-48
2022/03/25 01:15:59;;;;;;;;;;;;;;;;;;5052153;28;20039;-47
2022/03/25 01:18:25;;;;;;;;;;;;;;;;;;5052093;28;20058;-47
2022/03/25 01:20:51;;;;;;;;;;;;;;;;;;5052050;28;20379;-48
2022/03/25 01:23:17;;;;;;;;;;;;;;;;;;5052067;28;19966;-47
2022/03/25 01:25:43;;;;;;;;;;;;;;;;;;5051998;28;20011;-47
2022/03/25 01:28:09;;;;;;;;;;;;;;;;;;5051943;28;19905;-48
2022/03/25 01:30:35;;;;;;;;;;;;;;;;;;5051947;28;19912;-48
2022/03/25 01:33:03;;;;;;;;;;;;;;;;;;5051951;28;19951;-48
2022/03/25 01:35:28;;;;;;;;;;;;;;;;;;5051898;28;19905;-47
2022/03/25 01:37:55;;;;;;;;;;;;;;;;;;5051874;28;19905;-48
2022/03/25 01:40:21;;;;;;;;;;;;;;;;;;5051871;28;19904;-46
2022/03/25 01:42:47;;;;;;;;;;;;;;;;;;5053928;28;19905;-47
2022/03/25 01:45:13;;;;;;;;;;;;;;;;;;5055308;28;19982;-47
2022/03/25 01:47:38;;;;;;;;;;;;;;;;;;5055632;28;19944;-49
2022/03/25 01:50:04;;;;;;;;;;;;;;;;;;5055273;28;19905;-48
2022/03/25 01:52:30;;;;;;;;;;;;;;;;;;5055293;28;20413;-48
2022/03/25 01:54:56;;;;;;;;;;;;;;;;;;5055258;28;19905;-48
2022/03/25 01:57:22;;;;;;;;;;;;;;;;;;5055231;28;19905;-47
2022/03/25 01:59:48;;;;;;;;;;;;;;;;;;5055282;28;19912;-48
2022/03/25 02:02:14;;;;;;;;;;;;;;;;;;5054859;28;19946;-47
2022/03/25 02:04:41;;;;;;;;;;;;;;;;;;5055053;28;19917;-47
2022/03/25 02:07:09;;;;;;;;;;;;;;;;;;5055066;28;19905;-48
2022/03/25 02:09:35;;;;;;;;;;;;;;;;;;5054989;28;19908;-48
2022/03/25 02:12:01;;;;;;;;;;;;;;;;;;5055241;28;19904;-49
2022/03/25 02:14:26;;;;;;;;;;;;;;;;;;5054923;28;19996;-48
2022/03/25 02:16:52;;;;;;;;;;;;;;;;;;5054998;28;19904;-48
2022/03/25 02:19:18;;;;;;;;;;;;;;;;;;5054888;28;20341;-47
2022/03/25 02:21:44;;;;;;;;;;;;;;;;;;5054774;28;19959;-47
2022/03/25 02:24:11;;;;;;;;;;;;;;;;;;5054670;28;19960;-47
2022/03/25 02:26:37;;;;;;;;;;;;;;;;;;5055016;28;19912;-47
2022/03/25 02:29:04;;;;;;;;;;;;;;;;;;5054686;28;20278;-48
2022/03/25 02:31:30;;;;;;;;;;;;;;;;;;5054657;28;20344;-48
2022/03/25 02:33:56;;;;;;;;;;;;;;;;;;5054596;28;20000;-48
2022/03/25 02:36:22;;;;;;;;;;;;;;;;;;5054629;28;19904;-46
2022/03/25 02:38:48;;;;;;;;;;;;;;;;;;5054533;28;19912;-48
2022/03/25 02:41:14;;;;;;;;;;;;;;;;;;5054463;28;20375;-48
2022/03/25 02:43:40;;;;;;;;;;;;;;;;;;5054477;28;19908;-47
2022/03/25 02:46:06;;;;;;;;;;;;;;;;;;5054588;28;20011;-48
2022/03/25 02:48:31;;;;;;;;;;;;;;;;;;5054350;28;20362;-49
2022/03/25 02:50:57;;;;;;;;;;;;;;;;;;5054315;28;19908;-48
2022/03/25 02:53:23;;;;;;;;;;;;;;;;;;5053392;28;19944;-47
2022/03/25 02:55:49;;;;;;;;;;;;;;;;;;5054043;28;19912;-48
2022/03/25 02:58:15;;;;;;;;;;;;;;;;;;5054164;28;19951;-48
2022/03/25 03:00:42;;;;;;;;;;;;;;;;;;5054126;28;20315;-47
2022/03/25 03:03:08;;;;;;;;;;;;;;;;;;5053740;28;19986;-47
2022/03/25 03:05:33;;;;;;;;;;;;;;;;;;5053820;28;19917;-47
2022/03/25 03:07:59;;;;;;;;;;;;;;;;;;5053911;28;20427;-47
2022/03/25 03:10:25;;;;;;;;;;;;;;;;;;5053870;28;19904;-47
2022/03/25 03:12:52;;;;;;;;;;;;;;;;;;5053902;28;19952;-47
2022/03/25 03:15:18;;;;;;;;;;;;;;;;;;5053762;28;20359;-47
2022/03/25 03:17:44;;;;;;;;;;;;;;;;;;5053963;28;19947;-47
2022/03/25 03:20:09;;;;;;;;;;;;;;;;;;5053738;28;20391;-47
2022/03/25 03:22:35;;;;;;;;;;;;;;;;;;5053650;28;19995;-47
2022/03/25 03:25:01;;;;;;;;;;;;;;;;;;5035650;28;19920;-48
2022/03/25 03:27:27;;;;;;;;;;;;;;;;;;5053535;28;19904;-50
2022/03/25 03:29:53;;;;;;;;;;;;;;;;;;5053564;28;19915;-51
2022/03/25 03:32:19;;;;;;;;;;;;;;;;;;5053467;28;19904;-49
2022/03/25 03:34:45;;;;;;;;;;;;;;;;;;5053336;28;19912;-51
2022/03/25 03:37:11;;;;;;;;;;;;;;;;;;5053332;28;19904;-51
2022/03/25 03:39:36;;;;;;;;;;;;;;;;;;5053239;28;19912;-49
2022/03/25 03:42:03;;;;;;;;;;;;;;;;;;5053273;28;19959;-50
2022/03/25 03:44:29;;;;;;;;;;;;;;;;;;5053098;28;20291;-51
2022/03/25 03:46:54;;;;;;;;;;;;;;;;;;5053213;28;19904;-51
2022/03/25 03:49:20;;;;;;;;;;;;;;;;;;5053204;28;19927;-46
2022/03/25 03:51:46;;;;;;;;;;;;;;;;;;5053038;28;19911;-46
2022/03/25 03:54:12;;;;;;;;;;;;;;;;;;5053056;28;19904;-47
2022/03/25 03:56:38;;;;;;;;;;;;;;;;;;5053213;28;20437;-47
2022/03/25 03:59:04;;;;;;;;;;;;;;;;;;5052976;28;19944;-45
2022/03/25 04:01:30;;;;;;;;;;;;;;;;;;5052701;28;19908;-47
2022/03/25 04:03:56;;;;;;;;;;;;;;;;;;5052893;28;19958;-47
2022/03/25 04:06:22;;;;;;;;;;;;;;;;;;5052956;28;20159;-47
2022/03/25 04:08:48;;;;;;;;;;;;;;;;;;5053185;28;19905;-46
2022/03/25 04:11:14;;;;;;;;;;;;;;;;;;5053107;28;19904;-47
2022/03/25 04:13:44;;;;;;;;;;;;;;;;;;5053071;28;20015;-47
2022/03/25 04:16:10;;;;;;;;;;;;;;;;;;5052965;28;19915;-47
2022/03/25 04:18:36;;;;;;;;;;;;;;;;;;5052673;28;19904;-47
2022/03/25 04:21:02;;;;;;;;;;;;;;;;;;5052692;28;19905;-47
2022/03/25 04:23:28;;;;;;;;;;;;;;;;;;5052658;28;19905;-47
2022/03/25 04:25:54;;;;;;;;;;;;;;;;;;5052607;28;19920;-47
2022/03/25 04:28:20;;;;;;;;;;;;;;;;;;5052584;28;19924;-47
2022/03/25 04:30:46;;;;;;;;;;;;;;;;;;5052527;28;20352;-46
2022/03/25 04:33:12;;;;;;;;;;;;;;;;;;5052563;28;19947;-46
2022/03/25 04:35:37;;;;;;;;;;;;;;;;;;5052533;28;19905;-46
2022/03/25 04:38:03;;;;;;;;;;;;;;;;;;5052535;28;19912;-45
2022/03/25 04:40:29;;;;;;;;;;;;;;;;;;5052458;28;20359;-47
2022/03/25 04:42:55;;;;;;;;;;;;;;;;;;5052464;28;19904;-47
2022/03/25 04:45:21;;;;;;;;;;;;;;;;;;5052436;28;20287;-46
2022/03/25 04:47:47;;;;;;;;;;;;;;;;;;5052385;28;19990;-46
2022/03/25 04:50:13;;;;;;;;;;;;;;;;;;5052420;28;19905;-46
2022/03/25 04:52:39;;;;;;;;;;;;;;;;;;5052713;28;20417;-46
2022/03/25 04:55:04;;;;;;;;;;;;;;;;;;5052277;28;19940;-46
2022/03/25 04:57:30;;;;;;;;;;;;;;;;;;5052386;28;19905;-46
2022/03/25 04:59:56;;;;;;;;;;;;;;;;;;5052226;28;19919;-46
2022/03/25 05:02:22;;;;;;;;;;;;;;;;;;5052102;28;19923;-59
2022/03/25 05:04:48;;;;;;;;;;;;;;;;;;5052142;28;19960;-59
2022/03/25 05:07:14;;;;;;;;;;;;;;;;;;5052489;28;19905;-59
2022/03/25 05:09:40;;;;;;;;;;;;;;;;;;5052406;28;19995;-59
2022/03/25 05:12:06;;;;;;;;;;;;;;;;;;5052115;28;19911;-59
2022/03/25 05:14:32;;;;;;;;;;;;;;;;;;5052211;28;19905;-59
2022/03/25 05:16:58;;;;;;;;;;;;;;;;;;5053055;28;19908;-59
2022/03/25 05:19:24;;;;;;;;;;;;;;;;;;5056017;28;20292;-59
2022/03/25 05:21:50;;;;;;;;;;;;;;;;;;5055959;28;19956;-59
2022/03/25 05:24:16;;;;;;;;;;;;;;;;;;5056078;28;19913;-59
2022/03/25 05:26:42;;;;;;;;;;;;;;;;;;5055918;28;20406;-59
2022/03/25 05:29:09;;;;;;;;;;;;;;;;;;5056072;28;19949;-59
2022/03/25 05:31:36;;;;;;;;;;;;;;;;;;5056001;28;20348;-59
2022/03/25 05:34:03;;;;;;;;;;;;;;;;;;5055654;28;19911;-59
2022/03/25 05:36:29;;;;;;;;;;;;;;;;;;5055932;28;19916;-59
2022/03/25 05:38:55;;;;;;;;;;;;;;;;;;5055975;28;19905;-59
2022/03/25 05:41:21;;;;;;;;;;;;;;;;;;5055612;28;19905;-59
2022/03/25 05:43:47;;;;;;;;;;;;;;;;;;5055509;28;20377;-60
2022/03/25 05:46:13;;;;;;;;;;;;;;;;;;5055397;28;19913;-59
2022/03/25 05:48:39;;;;;;;;;;;;;;;;;;5055465;28;19955;-59
2022/03/25 05:51:05;;;;;;;;;;;;;;;;;;5055334;28;20282;-59
2022/03/25 05:53:32;;;;;;;;;;;;;;;;;;5055646;28;20004;-60
2022/03/25 05:55:59;;;;;;;;;;;;;;;;;;5055356;28;19905;-59
2022/03/25 05:58:25;;;;;;;;;;;;;;;;;;5055317;28;19995;-59
2022/03/25 06:00:51;;;;;;;;;;;;;;;;;;5055298;28;20000;-59
2022/03/25 06:03:17;;;;;;;;;;;;;;;;;;5054945;28;20337;-59
2022/03/25 06:05:43;;;;;;;;;;;;;;;;;;5055159;28;19912;-59
2022/03/25 06:08:09;;;;;;;;;;;;;;;;;;5055339;28;19944;-59
2022/03/25 06:10:35;;;;;;;;;;;;;;;;;;5055344;28;19905;-60
2022/03/25 06:13:00;;;;;;;;;;;;;;;;;;5055046;28;19912;-60
2022/03/25 06:15:28;;;;;;;;;;;;;;;;;;5054957;28;19991;-59
2022/03/25 06:17:54;;;;;;;;;;;;;;;;;;5055003;28;19909;-47
2022/03/25 06:20:19;;;;;;;;;;;;;;;;;;5055070;28;19909;-46
2022/03/25 06:22:45;;;;;;;;;;;;;;;;;;5054788;28;19904;-47
2022/03/25 06:25:11;;;;;;;;;;;;;;;;;;5054900;28;20019;-47
2022/03/25 06:27:37;;;;;;;;;;;;;;;;;;5054509;28;20285;-47
2022/03/25 06:30:03;;;;;;;;;;;;;;;;;;5054713;28;19947;-47
2022/03/25 06:32:29;;;;;;;;;;;;;;;;;;5054853;28;19904;-47
2022/03/25 06:34:55;;;;;;;;;;;;;;;;;;5054655;28;19943;-48
2022/03/25 06:37:21;;;;;;;;;;;;;;;;;;5054490;28;19967;-47
2022/03/25 06:39:47;;;;;;;;;;;;;;;;;;5054482;28;19905;-46
2022/03/25 06:42:13;;;;;;;;;;;;;;;;;;5054327;28;19905;-47
2022/03/25 06:44:39;;;;;;;;;;;;;;;;;;5054213;28;20413;-48
2022/03/25 06:47:05;;;;;;;;;;;;;;;;;;5054328;28;19905;-47
2022/03/25 06:49:30;;;;;;;;;;;;;;;;;;5054222;28;20042;-47
2022/03/25 06:51:57;;;;;;;;;;;;;;;;;;5054244;28;20295;-48
2022/03/25 06:54:23;;;;;;;;;;;;;;;;;;5054256;28;19912;-47
2022/03/25 06:56:49;;;;;;;;;;;;;;;;;;5054453;28;19904;-46
2022/03/25 06:59:15;;;;;;;;;;;;;;;;;;5054077;28;19905;-47
2022/03/25 07:01:41;;;;;;;;;;;;;;;;;;5054094;28;20337;-47
2022/03/25 07:04:07;;;;;;;;;;;;;;;;;;5054172;28;19908;-48
2022/03/25 07:06:33;;;;;;;;;;;;;;;;;;5054182;28;20397;-48
2022/03/25 07:08:59;;;;;;;;;;;;;;;;;;5053962;28;19944;-48
2022/03/25 07:11:25;;;;;;;;;;;;;;;;;;5053782;28;19904;-48
2022/03/25 07:13:51;;;;;;;;;;;;;;;;;;5053826;28;20003;-47
2022/03/25 07:16:17;;;;;;;;;;;;;;;;;;5053924;28;19928;-48
2022/03/25 07:18:43;;;;;;;;;;;;;;;;;;5053724;28;19904;-47
2022/03/25 07:21:09;;;;;;;;;;;;;;;;;;5053656;28;19966;-48
2022/03/25 07:23:35;;;;;;;;;;;;;;;;;;5053847;28;19944;-48
2022/03/25 07:26:02;;;;;;;;;;;;;;;;;;5053477;28;19966;-48
2022/03/25 07:28:28;;;;;;;;;;;;;;;;;;5053571;28;19905;-48
2022/03/25 07:30:53;;;;;;;;;;;;;;;;;;5053586;28;19962;-48
2022/03/25 07:33:19;;;;;;;;;;;;;;;;;;5053518;28;19908;-47
2022/03/25 07:35:45;;;;;;;;;;;;;;;;;;5053376;28;20019;-47
2022/03/25 07:38:11;;;;;;;;;;;;;;;;;;5053397;28;20059;-48
2022/03/25 07:40:37;;;;;;;;;;;;;;;;;;5053003;28;19905;-49
2022/03/25 07:43:03;;;;;;;;;;;;;;;;;;5053293;28;19911;-48
2022/03/25 07:45:29;;;;;;;;;;;;;;;;;;5053094;28;19913;-49
2022/03/25 07:47:55;;;;;;;;;;;;;;;;;;5053239;28;19999;-49
2022/03/25 07:50:20;;;;;;;;;;;;;;;;;;5053215;28;19905;-49
2022/03/25 07:52:46;;;;;;;;;;;;;;;;;;5053290;28;19905;-48
2022/03/25 07:55:13;;;;;;;;;;;;;;;;;;5053093;28;19948;-49
2022/03/25 07:57:38;;;;;;;;;;;;;;;;;;5052959;28;19932;-48
2022/03/25 08:00:04;;;;;;;;;;;;;;;;;;5052901;28;20014;-49
2022/03/25 08:02:30;;;;;;;;;;;;;;;;;;5052625;28;19962;-48
2022/03/25 08:04:56;;;;;;;;;;;;;;;;;;5052770;28;19913;-49
2022/03/25 08:07:22;;;;;;;;;;;;;;;;;;5052960;28;19919;-48
2022/03/25 08:09:49;;;;;;;;;;;;;;;;;;5052826;28;19905;-48
2022/03/25 08:12:15;;;;;;;;;;;;;;;;;;5053089;28;19912;-48
2022/03/25 08:14:41;;;;;;;;;;;;;;;;;;5052732;28;19909;-48
2022/03/25 08:17:08;;;;;;;;;;;;;;;;;;5052779;28;19905;-48
2022/03/25 08:19:33;;;;;;;;;;;;;;;;;;5052667;28;20347;-48
2022/03/25 08:21:59;;;;;;;;;;;;;;;;;;5052760;28;19915;-48
2022/03/25 08:29:55;;;;;;;;;;;;;;;;;;5052549;28;19996;-47
2022/03/25 08:32:21;;;;;;;;;;;;;;;;;;5052581;28;19904;-47
2022/03/25 08:34:47;;;;;;;;;;;;;;;;;;5052726;28;19911;-47
2022/03/25 08:37:13;;;;;;;;;;;;;;;;;;5052506;28;19905;-47
2022/03/25 08:39:39;;;;;;;;;;;;;;;;;;5052764;28;19951;-47
2022/03/25 08:42:08;;;;;;;;;;;;;;;;;;5052484;28;19904;-46
2022/03/25 08:44:34;;;;;;;;;;;;;;;;;;5052406;28;19915;-48
2022/03/25 08:47:00;;;;;;;;;;;;;;;;;;5052393;28;19916;-47
2022/03/25 08:49:26;;;;;;;;;;;;;;;;;;5052412;28;19934;-47
2022/03/25 08:51:51;;;;;;;;;;;;;;;;;;5054541;28;19905;-47
2022/03/25 08:54:18;;;;;;;;;;;;;;;;;;5056388;28;19939;-46
2022/03/25 08:56:44;;;;;;;;;;;;;;;;;;5056641;28;20358;-49
2022/03/25 08:59:10;;;;;;;;;;;;;;;;;;5056450;28;19940;-47
2022/03/25 09:01:36;;;;;;;;;;;;;;;;;;5056147;28;19913;-58
2022/03/25 09:04:02;;;;;;;;;;;;;;;;;;5056539;28;20003;-58
2022/03/25 09:06:28;;;;;;;;;;;;;;;;;;5056315;28;19916;-58
2022/03/25 09:08:55;;;;;;;;;;;;;;;;;;5056170;28;20295;-58
2022/03/25 09:11:21;;;;;;;;;;;;;;;;;;5056090;28;19909;-57
2022/03/25 09:13:47;;;;;;;;;;;;;;;;;;5056026;28;19905;-58
2022/03/25 09:16:13;;;;;;;;;;;;;;;;;;5056015;28;19992;-58
2022/03/25 09:18:39;;;;;;;;;;;;;;;;;;5056067;28;20322;-57
2022/03/25 09:21:05;;;;;;;;;;;;;;;;;;5056032;28;19957;-58
2022/03/25 09:23:31;;;;;;;;;;;;;;;;;;5055881;28;19904;-58
2022/03/25 09:25:58;;;;;;;;;;;;;;;;;;5055638;28;20015;-58
2022/03/25 09:28:24;;;;;;;;;;;;;;;;;;5055862;28;19987;-58
2022/03/25 09:30:50;;;;;;;;;;;;;;;;;;5056017;28;19908;-58
2022/03/25 09:33:15;;;;;;;;;;;;;;;;;;5055799;28;20382;-58
2022/03/25 09:35:42;;;;;;;;;;;;;;;;;;5055806;28;19909;-58
2022/03/25 09:38:08;;;;;;;;;;;;;;;;;;5055631;28;19904;-58
2022/03/25 09:40:34;;;;;;;;;;;;;;;;;;5055654;28;19905;-58
2022/03/25 09:43:00;;;;;;;;;;;;;;;;;;5055576;28;20003;-58
2022/03/25 09:45:26;;;;;;;;;;;;;;;;;;5055560;28;19912;-58
2022/03/25 09:47:53;;;;;;;;;;;;;;;;;;5055477;28;19905;-58
2022/03/25 09:50:21;;;;;;;;;;;;;;;;;;5055426;28;19959;-55
2022/03/25 09:52:47;;;;;;;;;;;;;;;;;;5055377;28;19950;-58
2022/03/25 09:55:13;;;;;;;;;;;;;;;;;;5037305;28;19909;-46
2022/03/25 09:57:39;;;;;;;;;;;;;;;;;;5055418;28;19904;-47
2022/03/25 10:00:05;;;;;;;;;;;;;;;;;;5055082;28;20410;-47
2022/03/25 10:02:31;;;;;;;;;;;;;;;;;;5054240;28;19917;-47
2022/03/25 10:04:57;;;;;;;;;;;;;;;;;;5055276;28;19948;-47
2022/03/25 10:07:23;;;;;;;;;;;;;;;;;;5055331;28;19916;-46
2022/03/25 10:09:49;;;;;;;;;;;;;;;;;;5055218;28;19912;-46
2022/03/25 10:12:16;;;;;;;;;;;;;;;;;;5055054;28;19905;-48
2022/03/25 10:14:41;;;;;;;;;;;;;;;;;;5055119;28;19911;-46
2022/03/25 10:17:07;;;;;;;;;;;;;;;;;;5054907;28;19908;-47
2022/03/25 10:19:33;;;;;;;;;;;;;;;;;;5054956;28;19905;-47
2022/03/25 10:21:59;;;;;;;;;;;;;;;;;;5055113;28;19930;-46
2022/03/25 10:24:25;;;;;;;;;;;;;;;;;;5054763;28;19917;-47
2022/03/25 10:26:51;;;;;;;;;;;;;;;;;;5054750;28;19955;-47
2022/03/25 10:29:17;;;;;;;;;;;;;;;;;;5054687;28;20004;-47
2022/03/25 10:31:43;;;;;;;;;;;;;;;;;;5036753;28;19904;-47
2022/03/25 10:34:09;;;;;;;;;;;;;;;;;;5054686;28;19904;-48
2022/03/25 10:36:35;;;;;;;;;;;;;;;;;;5054572;28;19958;-47
2022/03/25 10:39:01;;;;;;;;;;;;;;;;;;5054334;28;20291;-49
2022/03/25 10:41:27;;;;;;;;;;;;;;;;;;5054499;28;19912;-48
2022/03/25 10:43:53;;;;;;;;;;;;;;;;;;5054704;28;19915;-48
2022/03/25 10:46:19;;;;;;;;;;;;;;;;;;5054233;28;19917;-47
2022/03/25 10:48:45;;;;;;;;;;;;;;;;;;5054325;28;19904;-47
2022/03/25 10:51:11;;;;;;;;;;;;;;;;;;5054284;28;20008;-47
2022/03/25 10:53:36;;;;;;;;;;;;;;;;;;5054275;28;19905;-47
2022/03/25 10:56:03;;;;;;;;;;;;;;;;;;5054188;28;20297;-48
2022/03/25 10:58:29;;;;;;;;;;;;;;;;;;5054386;28;19963;-49
2022/03/25 11:00:55;;;;;;;;;;;;;;;;;;5054098;28;20356;-48
2022/03/25 11:03:21;;;;;;;;;;;;;;;;;;5053758;28;19924;-47
2022/03/25 11:05:46;;;;;;;;;;;;;;;;;;5053812;28;19919;-47
2022/03/25 11:08:12;;;;;;;;;;;;;;;;;;5053747;28;19912;-47
2022/03/25 11:10:38;;;;;;;;;;;;;;;;;;5053694;28;19905;-48
2022/03/25 11:13:04;;;;;;;;;;;;;;;;;;5035723;28;19911;-48
2022/03/25 11:15:30;;;;;;;;;;;;;;;;;;5052629;28;20410;-47
2022/03/25 11:17:56;;;;;;;;;;;;;;;;;;5053605;28;19905;-47
2022/03/25 11:20:22;;;;;;;;;;;;;;;;;;5053548;28;20272;-46
2022/03/25 11:22:48;;;;;;;;;;;;;;;;;;5053342;28;20035;-47
2022/03/25 11:25:14;;;;;;;;;;;;;;;;;;5053328;28;19920;-47
2022/03/25 11:27:40;;;;;;;;;;;;;;;;;;5053276;28;19909;-47
2022/03/25 11:30:09;;;;;;;;;;;;;;;;;;5053370;28;19995;-47
2022/03/25 11:32:35;;;;;;;;;;;;;;;;;;5053166;28;19905;-47
2022/03/25 11:35:01;;;;;;;;;;;;;;;;;;5053260;28;20377;-47
2022/03/25 11:37:27;;;;;;;;;;;;;;;;;;5053224;28;19904;-47
2022/03/25 11:39:52;;;;;;;;;;;;;;;;;;5053237;28;19991;-47
2022/03/25 11:42:18;;;;;;;;;;;;;;;;;;5053116;28;19999;-47
2022/03/25 11:44:45;;;;;;;;;;;;;;;;;;5053007;28;19913;-48
2022/03/25 11:47:11;;;;;;;;;;;;;;;;;;5053175;28;19943;-48
2022/03/25 11:49:38;;;;;;;;;;;;;;;;;;5053417;28;19936;-48
2022/03/25 11:52:04;;;;;;;;;;;;;;;;;;5053073;28;20408;-47
2022/03/25 11:54:30;;;;;;;;;;;;;;;;;;5052921;28;19909;-47
2022/03/25 11:56:56;;;;;;;;;;;;;;;;;;5052831;28;19905;-49
2022/03/25 11:59:21;;;;;;;;;;;;;;;;;;5052807;28;19905;-48
2022/03/25 12:01:48;;;;;;;;;;;;;;;;;;5052536;28;19999;-48
2022/03/25 12:04:15;;;;;;;;;;;;;;;;;;5052717;28;20386;-47
2022/03/25 12:06:40;;;;;;;;;;;;;;;;;;5052760;28;19915;-59
2022/03/25 12:09:07;;;;;;;;;;;;;;;;;;5052742;28;20287;-59
2022/03/25 12:11:33;;;;;;;;;;;;;;;;;;5053015;28;19912;-59
2022/03/25 12:13:59;;;;;;;;;;;;;;;;;;5052774;28;19904;-59
2022/03/25 12:16:25;;;;;;;;;;;;;;;;;;5052780;28;19951;-59
2022/03/25 12:18:51;;;;;;;;;;;;;;;;;;5052478;28;20338;-59
2022/03/25 12:21:16;;;;;;;;;;;;;;;;;;5052538;28;19909;-59
2022/03/25 12:23:42;;;;;;;;;;;;;;;;;;5052447;28;19987;-59
2022/03/25 12:26:08;;;;;;;;;;;;;;;;;;5052037;28;19935;-59
2022/03/25 12:28:34;;;;;;;;;;;;;;;;;;5052776;28;20095;-59
2022/03/25 12:31:00;;;;;;;;;;;;;;;;;;5052553;28;20350;-59
2022/03/25 12:33:26;;;;;;;;;;;;;;;;;;5052451;28;19905;-59
2022/03/25 12:35:52;;;;;;;;;;;;;;;;;;5052516;28;19947;-58
2022/03/25 12:38:18;;;;;;;;;;;;;;;;;;5052570;28;19951;-59
2022/03/25 12:40:43;;;;;;;;;;;;;;;;;;5052565;28;19940;-58
2022/03/25 12:43:11;;;;;;;;;;;;;;;;;;5052588;28;19909;-46
2022/03/25 12:45:37;;;;;;;;;;;;;;;;;;5052393;28;19912;-47
2022/03/25 12:48:03;;;;;;;;;;;;;;;;;;5052456;28;20391;-47
2022/03/25 12:50:29;;;;;;;;;;;;;;;;;;5052346;28;19905;-46
2022/03/25 12:52:54;;;;;;;;;;;;;;;;;;5052235;28;19912;-46
2022/03/25 12:55:20;;;;;;;;;;;;;;;;;;5052292;28;20392;-48
2022/03/25 12:57:46;;;;;;;;;;;;;;;;;;5052242;28;19905;-46
2022/03/25 13:00:12;;;;;;;;;;;;;;;;;;5052287;28;19952;-47
2022/03/25 13:02:38;;;;;;;;;;;;;;;;;;5052206;28;20537;-48
2022/03/25 13:05:04;;;;;;;;;;;;;;;;;;5052219;28;20224;-47
2022/03/25 13:07:30;;;;;;;;;;;;;;;;;;5052308;28;19970;-47
2022/03/25 13:09:56;;;;;;;;;;;;;;;;;;5052261;28;19951;-47
2022/03/25 13:12:22;;;;;;;;;;;;;;;;;;5052220;28;19935;-47
2022/03/25 13:14:48;;;;;;;;;;;;;;;;;;5052166;28;19912;-47
2022/03/25 13:17:14;;;;;;;;;;;;;;;;;;5052204;28;19904;-47
2022/03/25 13:19:40;;;;;;;;;;;;;;;;;;5052222;28;19909;-48
2022/03/25 13:22:06;;;;;;;;;;;;;;;;;;5052292;28;19905;-47
2022/03/25 13:24:32;;;;;;;;;;;;;;;;;;5051968;28;19963;-46
2022/03/25 13:26:58;;;;;;;;;;;;;;;;;;5052368;28;20381;-47
2022/03/25 13:29:23;;;;;;;;;;;;;;;;;;5052106;28;19904;-49
2022/03/25 13:31:50;;;;;;;;;;;;;;;;;;5052316;28;19909;-48
2022/03/25 13:34:16;;;;;;;;;;;;;;;;;;5052314;28;19905;-47
2022/03/25 13:36:42;;;;;;;;;;;;;;;;;;5052006;28;20423;-48
2022/03/25 13:39:10;;;;;;;;;;;;;;;;;;5054510;28;19908;-47
2022/03/25 13:41:36;;;;;;;;;;;;;;;;;;5055994;28;19904;-49
2022/03/25 13:44:02;;;;;;;;;;;;;;;;;;5055883;28;19904;-47
2022/03/25 13:46:29;;;;;;;;;;;;;;;;;;5055495;28;19959;-49
2022/03/25 13:48:55;;;;;;;;;;;;;;;;;;5055454;28;19904;-46
2022/03/25 13:51:20;;;;;;;;;;;;;;;;;;5054751;28;19905;-47
2022/03/25 13:53:46;;;;;;;;;;;;;;;;;;5055443;28;19962;-47
2022/03/25 13:56:13;;;;;;;;;;;;;;;;;;5054996;28;20375;-47
2022/03/25 13:58:39;;;;;;;;;;;;;;;;;;5054587;28;19904;-48
2022/03/25 14:01:06;;;;;;;;;;;;;;;;;;5055238;28;20271;-49
2022/03/25 14:03:32;;;;;;;;;;;;;;;;;;5055050;28;19939;-48
2022/03/25 14:05:58;;;;;;;;;;;;;;;;;;5055381;28;20356;-48
2022/03/25 14:08:24;;;;;;;;;;;;;;;;;;5055105;28;19904;-49
2022/03/25 14:10:50;;;;;;;;;;;;;;;;;;5055178;28;19908;-48
2022/03/25 14:13:16;;;;;;;;;;;;;;;;;;5055056;28;19946;-48
2022/03/25 14:15:42;;;;;;;;;;;;;;;;;;5055122;28;19905;-48
2022/03/25 14:18:08;;;;;;;;;;;;;;;;;;5055255;28;19955;-48
2022/03/25 14:20:35;;;;;;;;;;;;;;;;;;5054976;28;19904;-50
2022/03/25 14:23:01;;;;;;;;;;;;;;;;;;5054926;28;19909;-48
2022/03/25 14:25:33;;;;;;;;;;;;;;;;;;5055106;28;19919;-49
2022/03/25 14:28:00;;;;;;;;;;;;;;;;;;5054878;28;19947;-48
2022/03/25 14:30:25;;;;;;;;;;;;;;;;;;5054780;28;19908;-48
2022/03/25 14:32:54;;;;;;;;;;;;;;;;;;5054844;28;20359;-48
2022/03/25 14:35:22;;;;;;;;;;;;;;;;;;5054812;28;19915;-47
2022/03/25 14:37:47;;;;;;;;;;;;;;;;;;5054648;28;20450;-49
2022/03/25 14:40:13;;;;;;;;;;;;;;;;;;5054538;28;19956;-47
2022/03/25 14:42:39;;;;;;;;;;;;;;;;;;5054529;28;19950;-48
2022/03/25 14:45:05;;;;;;;;;;;;;;;;;;5054730;28;19908;-48
2022/03/25 14:47:31;;;;;;;;;;;;;;;;;;5054609;28;19995;-48
2022/03/25 14:49:57;;;;;;;;;;;;;;;;;;5054302;28;19906;-48
2022/03/25 14:52:23;;;;;;;;;;;;;;;;;;5054279;28;20363;-48
2022/03/25 14:54:49;;;;;;;;;;;;;;;;;;5054056;28;19905;-49
2022/03/25 14:57:15;;;;;;;;;;;;;;;;;;5054039;28;19911;-50
2022/03/25 14:59:41;;;;;;;;;;;;;;;;;;5054067;28;19944;-48
2022/03/25 15:02:07;;;;;;;;;;;;;;;;;;5053907;28;19978;-48
2022/03/25 15:04:33;;;;;;;;;;;;;;;;;;5053950;28;20432;-48
2022/03/25 15:06:59;;;;;;;;;;;;;;;;;;5054172;28;20279;-47
2022/03/25 15:09:25;;;;;;;;;;;;;;;;;;5053833;28;19911;-47
2022/03/25 15:11:51;;;;;;;;;;;;;;;;;;5053814;28;20355;-48
2022/03/25 15:14:17;;;;;;;;;;;;;;;;;;5054024;28;19904;-47
2022/03/25 15:16:43;;;;;;;;;;;;;;;;;;5054111;28;19908;-47
2022/03/25 15:19:10;;;;;;;;;;;;;;;;;;5053868;28;19905;-48
2022/03/25 15:21:35;;;;;;;;;;;;;;;;;;5053688;28;19904;-48
2022/03/25 15:24:01;;;;;;;;;;;;;;;;;;5053631;28;19912;-47
2022/03/25 15:26:27;;;;;;;;;;;;;;;;;;5053578;28;19913;-47
2022/03/25 15:28:53;;;;;;;;;;;;;;;;;;5054042;28;20386;-48
2022/03/25 15:36:48;;;;;;;;;;;;;;;;;;5053573;28;20326;-48
2022/03/25 15:39:14;;;;;;;;;;;;;;;;;;5053451;28;19909;-48
2022/03/25 15:41:40;;;;;;;;;;;;;;;;;;5053326;28;19915;-48
2022/03/25 15:44:06;;;;;;;;;;;;;;;;;;5053343;28;19904;-47
2022/03/25 15:46:31;;;;;;;;;;;;;;;;;;5053302;28;19913;-48
2022/03/25 15:48:57;;;;;;;;;;;;;;;;;;5053266;28;20422;-48
2022/03/25 15:51:23;;;;;;;;;;;;;;;;;;5053398;28;19905;-48
2022/03/25 15:53:50;;;;;;;;;;;;;;;;;;5053314;28;20386;-46
2022/03/25 15:56:16;;;;;;;;;;;;;;;;;;5052966;28;19904;-47
2022/03/25 15:58:42;;;;;;;;;;;;;;;;;;5052819;28;19915;-48
2022/03/25 16:01:10;;;;;;;;;;;;;;;;;;5052301;28;19908;-47
2022/03/25 16:03:36;;;;;;;;;;;;;;;;;;5052601;28;19978;-47
2022/03/25 16:06:02;;;;;;;;;;;;;;;;;;5052866;28;20322;-47
2022/03/25 16:08:27;;;;;;;;;;;;;;;;;;5052725;28;19905;-47
2022/03/25 16:10:54;;;;;;;;;;;;;;;;;;5053064;28;19962;-47
2022/03/25 16:13:21;;;;;;;;;;;;;;;;;;5052983;28;19948;-48
2022/03/25 16:15:47;;;;;;;;;;;;;;;;;;5052773;28;19946;-47
2022/03/25 16:18:13;;;;;;;;;;;;;;;;;;5052687;28;19912;-48
2022/03/25 16:20:39;;;;;;;;;;;;;;;;;;5052733;28;20003;-47
2022/03/25 16:23:06;;;;;;;;;;;;;;;;;;5052977;28;20418;-47
2022/03/25 16:25:32;;;;;;;;;;;;;;;;;;5052748;28;19919;-48
2022/03/25 16:27:58;;;;;;;;;;;;;;;;;;5052862;28;19991;-47
2022/03/25 16:30:24;;;;;;;;;;;;;;;;;;5052601;28;20326;-48
2022/03/25 16:32:52;;;;;;;;;;;;;;;;;;5052647;28;19938;-47
2022/03/25 16:35:18;;;;;;;;;;;;;;;;;;5052624;28;19974;-47
2022/03/25 16:37:45;;;;;;;;;;;;;;;;;;5052386;28;20367;-47
2022/03/25 16:40:11;;;;;;;;;;;;;;;;;;5052607;28;20366;-47
2022/03/25 16:42:37;;;;;;;;;;;;;;;;;;5052590;28;19909;-47
2022/03/25 16:45:03;;;;;;;;;;;;;;;;;;5052201;28;19921;-47
2022/03/25 16:47:29;;;;;;;;;;;;;;;;;;5052537;28;19919;-48